sensor_id;sensor_type;location;lat;lon;timestamp;P1;durP1;ratioP1;P2;durP2;ratioP2
76733;SDS011;65660;53.288;14.666;2023-04-28T00:03:52;13.70;;;7.83;;
76733;SDS011;65660;53.288;14.666;2023-04-28T00:08:52;11.57;;;6.97;;
76733;SDS011;65660;53.288;14.666;2023-04-28T00:13:53;11.03;;;7.50;;
76733;SDS011;65660;53.288;14.666;2023-04-28T00:18:54;13.40;;;7.80;;
76733;SDS011;65660;53.288;14.666;2023-04-28T00:23:55;13.07;;;7.93;;
76733;SDS011;65660;53.288;14.666;2023-04-28T00:28:55;11.57;;;7.03;;
76733;SDS011;65660;53.288;14.666;2023-04-28T00:33:56;9.43;;;6.63;;
76733;SDS011;65660;53.288;14.666;2023-04-28T00:38:58;9.10;;;6.70;;
76733;SDS011;65660;53.288;14.666;2023-04-28T00:43:59;9.73;;;6.70;;
76733;SDS011;65660;53.288;14.666;2023-04-28T00:48:59;9.83;;;7.60;;
76733;SDS011;65660;53.288;14.666;2023-04-28T00:54:00;11.53;;;7.90;;
76733;SDS011;65660;53.288;14.666;2023-04-28T00:59:01;12.87;;;11.37;;
76733;SDS011;65660;53.288;14.666;2023-04-28T01:04:01;10.73;;;8.80;;
76733;SDS011;65660;53.288;14.666;2023-04-28T01:09:02;11.00;;;7.10;;
76733;SDS011;65660;53.288;14.666;2023-04-28T01:14:03;9.87;;;6.90;;
76733;SDS011;65660;53.288;14.666;2023-04-28T01:19:05;13.03;;;9.90;;
76733;SDS011;65660;53.288;14.666;2023-04-28T01:24:07;11.23;;;7.20;;
76733;SDS011;65660;53.288;14.666;2023-04-28T01:29:08;11.80;;;8.10;;
76733;SDS011;65660;53.288;14.666;2023-04-28T01:34:08;15.87;;;8.70;;
76733;SDS011;65660;53.288;14.666;2023-04-28T01:39:09;15.13;;;8.87;;
76733;SDS011;65660;53.288;14.666;2023-04-28T01:44:09;14.43;;;9.03;;
76733;SDS011;65660;53.288;14.666;2023-04-28T01:49:10;16.73;;;9.20;;
76733;SDS011;65660;53.288;14.666;2023-04-28T01:54:11;13.67;;;9.30;;
76733;SDS011;65660;53.288;14.666;2023-04-28T01:59:11;15.47;;;9.53;;
76733;SDS011;65660;53.288;14.666;2023-04-28T02:04:12;11.97;;;8.83;;
76733;SDS011;65660;53.288;14.666;2023-04-28T02:09:13;11.83;;;7.93;;
76733;SDS011;65660;53.288;14.666;2023-04-28T02:14:13;11.53;;;7.30;;
76733;SDS011;65660;53.288;14.666;2023-04-28T02:19:14;8.77;;;6.70;;
76733;SDS011;65660;53.288;14.666;2023-04-28T02:24:15;10.73;;;6.90;;
76733;SDS011;65660;53.288;14.666;2023-04-28T02:29:16;10.73;;;7.63;;
76733;SDS011;65660;53.288;14.666;2023-04-28T02:34:16;10.93;;;7.07;;
76733;SDS011;65660;53.288;14.666;2023-04-28T02:39:17;10.93;;;7.43;;
76733;SDS011;65660;53.288;14.666;2023-04-28T02:44:19;12.47;;;7.13;;
76733;SDS011;65660;53.288;14.666;2023-04-28T02:49:19;11.80;;;8.00;;
76733;SDS011;65660;53.288;14.666;2023-04-28T02:54:20;9.83;;;7.20;;
76733;SDS011;65660;53.288;14.666;2023-04-28T02:59:21;9.80;;;7.13;;
76733;SDS011;65660;53.288;14.666;2023-04-28T03:04:22;10.53;;;6.63;;
76733;SDS011;65660;53.288;14.666;2023-04-28T03:09:23;10.37;;;6.67;;
76733;SDS011;65660;53.288;14.666;2023-04-28T03:14:24;12.07;;;6.60;;
76733;SDS011;65660;53.288;14.666;2023-04-28T03:19:24;9.97;;;7.00;;
76733;SDS011;65660;53.288;14.666;2023-04-28T03:24:25;11.47;;;6.60;;
76733;SDS011;65660;53.288;14.666;2023-04-28T03:29:26;7.40;;;6.47;;
76733;SDS011;65660;53.288;14.666;2023-04-28T03:34:27;9.53;;;6.40;;
76733;SDS011;65660;53.288;14.666;2023-04-28T03:39:28;9.23;;;6.90;;
76733;SDS011;65660;53.288;14.666;2023-04-28T03:44:29;9.77;;;6.70;;
76733;SDS011;65660;53.288;14.666;2023-04-28T03:49:29;8.67;;;6.60;;
76733;SDS011;65660;53.288;14.666;2023-04-28T03:54:30;7.70;;;6.87;;
76733;SDS011;65660;53.288;14.666;2023-04-28T03:59:31;10.17;;;6.80;;
76733;SDS011;65660;53.288;14.666;2023-04-28T04:04:32;9.80;;;6.37;;
76733;SDS011;65660;53.288;14.666;2023-04-28T04:09:33;10.17;;;7.27;;
76733;SDS011;65660;53.288;14.666;2023-04-28T04:14:34;10.63;;;6.67;;
76733;SDS011;65660;53.288;14.666;2023-04-28T04:19:34;7.90;;;6.53;;
76733;SDS011;65660;53.288;14.666;2023-04-28T04:24:35;11.00;;;7.50;;
76733;SDS011;65660;53.288;14.666;2023-04-28T04:29:36;9.27;;;6.93;;
76733;SDS011;65660;53.288;14.666;2023-04-28T04:34:37;12.80;;;7.63;;
76733;SDS011;65660;53.288;14.666;2023-04-28T04:39:38;11.50;;;7.63;;
76733;SDS011;65660;53.288;14.666;2023-04-28T04:44:39;10.40;;;7.53;;
76733;SDS011;65660;53.288;14.666;2023-04-28T04:49:39;12.67;;;8.97;;
76733;SDS011;65660;53.288;14.666;2023-04-28T04:54:40;10.20;;;7.90;;
76733;SDS011;65660;53.288;14.666;2023-04-28T04:59:41;9.07;;;6.50;;
76733;SDS011;65660;53.288;14.666;2023-04-28T05:04:42;9.10;;;6.77;;
76733;SDS011;65660;53.288;14.666;2023-04-28T05:09:42;10.57;;;7.53;;
76733;SDS011;65660;53.288;14.666;2023-04-28T05:14:43;10.57;;;7.10;;
76733;SDS011;65660;53.288;14.666;2023-04-28T05:19:44;13.10;;;7.70;;
76733;SDS011;65660;53.288;14.666;2023-04-28T05:24:45;11.70;;;8.00;;
76733;SDS011;65660;53.288;14.666;2023-04-28T05:29:46;14.27;;;8.00;;
76733;SDS011;65660;53.288;14.666;2023-04-28T05:34:46;11.80;;;7.17;;
76733;SDS011;65660;53.288;14.666;2023-04-28T05:39:47;10.97;;;6.90;;
76733;SDS011;65660;53.288;14.666;2023-04-28T05:44:48;9.43;;;6.00;;
76733;SDS011;65660;53.288;14.666;2023-04-28T05:49:49;9.80;;;5.63;;
76733;SDS011;65660;53.288;14.666;2023-04-28T05:54:50;9.20;;;5.47;;
76733;SDS011;65660;53.288;14.666;2023-04-28T05:59:50;9.90;;;5.63;;
76733;SDS011;65660;53.288;14.666;2023-04-28T06:04:51;7.73;;;5.33;;
76733;SDS011;65660;53.288;14.666;2023-04-28T06:09:52;8.37;;;5.50;;
76733;SDS011;65660;53.288;14.666;2023-04-28T06:14:52;10.47;;;6.53;;
76733;SDS011;65660;53.288;14.666;2023-04-28T06:19:53;10.70;;;6.40;;
76733;SDS011;65660;53.288;14.666;2023-04-28T06:24:54;12.20;;;6.10;;
76733;SDS011;65660;53.288;14.666;2023-04-28T06:29:55;10.70;;;8.40;;
76733;SDS011;65660;53.288;14.666;2023-04-28T06:34:55;12.30;;;6.90;;
76733;SDS011;65660;53.288;14.666;2023-04-28T06:39:56;11.40;;;6.63;;
76733;SDS011;65660;53.288;14.666;2023-04-28T06:44:57;11.20;;;5.63;;
76733;SDS011;65660;53.288;14.666;2023-04-28T06:49:57;8.50;;;6.03;;
76733;SDS011;65660;53.288;14.666;2023-04-28T06:54:58;10.23;;;5.90;;
76733;SDS011;65660;53.288;14.666;2023-04-28T06:59:59;9.63;;;5.60;;
76733;SDS011;65660;53.288;14.666;2023-04-28T07:05:00;7.97;;;5.73;;
76733;SDS011;65660;53.288;14.666;2023-04-28T07:10:01;10.60;;;6.00;;
76733;SDS011;65660;53.288;14.666;2023-04-28T07:15:02;8.87;;;7.23;;
76733;SDS011;65660;53.288;14.666;2023-04-28T07:20:03;9.57;;;6.60;;
76733;SDS011;65660;53.288;14.666;2023-04-28T07:25:05;11.00;;;6.20;;
76733;SDS011;65660;53.288;14.666;2023-04-28T07:30:06;9.13;;;6.60;;
76733;SDS011;65660;53.288;14.666;2023-04-28T07:35:07;9.43;;;6.23;;
76733;SDS011;65660;53.288;14.666;2023-04-28T07:40:08;8.93;;;5.93;;
76733;SDS011;65660;53.288;14.666;2023-04-28T07:45:09;8.93;;;5.70;;
76733;SDS011;65660;53.288;14.666;2023-04-28T07:50:11;6.20;;;4.60;;
76733;SDS011;65660;53.288;14.666;2023-04-28T07:55:11;5.27;;;3.70;;
76733;SDS011;65660;53.288;14.666;2023-04-28T08:00:12;4.53;;;3.57;;
76733;SDS011;65660;53.288;14.666;2023-04-28T08:05:14;4.47;;;3.97;;
76733;SDS011;65660;53.288;14.666;2023-04-28T08:10:15;4.87;;;4.00;;
76733;SDS011;65660;53.288;14.666;2023-04-28T08:15:16;3.93;;;3.50;;
76733;SDS011;65660;53.288;14.666;2023-04-28T08:20:18;3.70;;;3.40;;
76733;SDS011;65660;53.288;14.666;2023-04-28T08:25:19;4.27;;;3.70;;
76733;SDS011;65660;53.288;14.666;2023-04-28T08:30:20;9.00;;;3.80;;
76733;SDS011;65660;53.288;14.666;2023-04-28T08:35:21;4.83;;;3.50;;
76733;SDS011;65660;53.288;14.666;2023-04-28T08:40:22;5.30;;;4.80;;
76733;SDS011;65660;53.288;14.666;2023-04-28T08:45:23;6.70;;;4.90;;
76733;SDS011;65660;53.288;14.666;2023-04-28T08:50:25;5.32;;;3.80;;
76733;SDS011;65660;53.288;14.666;2023-04-28T08:55:28;5.50;;;3.35;;
76733;SDS011;65660;53.288;14.666;2023-04-28T09:00:29;4.47;;;3.75;;
76733;SDS011;65660;53.288;14.666;2023-04-28T09:05:30;5.25;;;4.75;;
76733;SDS011;65660;53.288;14.666;2023-04-28T09:10:31;4.72;;;3.80;;
76733;SDS011;65660;53.288;14.666;2023-04-28T09:20:34;5.85;;;3.70;;
76733;SDS011;65660;53.288;14.666;2023-04-28T09:25:35;4.05;;;3.70;;
76733;SDS011;65660;53.288;14.666;2023-04-28T09:30:38;5.10;;;4.75;;
76733;SDS011;65660;53.288;14.666;2023-04-28T09:35:39;3.70;;;3.20;;
76733;SDS011;65660;53.288;14.666;2023-04-28T09:40:52;3.42;;;3.15;;
76733;SDS011;65660;53.288;14.666;2023-04-28T09:45:53;3.75;;;3.45;;
76733;SDS011;65660;53.288;14.666;2023-04-28T09:50:54;3.60;;;3.30;;
76733;SDS011;65660;53.288;14.666;2023-04-28T09:55:56;4.05;;;3.65;;
76733;SDS011;65660;53.288;14.666;2023-04-28T10:00:59;4.20;;;3.90;;
76733;SDS011;65660;53.288;14.666;2023-04-28T10:06:00;3.85;;;3.20;;
76733;SDS011;65660;53.288;14.666;2023-04-28T10:11:01;5.30;;;3.60;;
76733;SDS011;65660;53.288;14.666;2023-04-28T10:16:04;4.03;;;3.72;;
76733;SDS011;65660;53.288;14.666;2023-04-28T10:21:06;3.63;;;3.33;;
76733;SDS011;65660;53.288;14.666;2023-04-28T10:26:08;4.38;;;3.65;;
76733;SDS011;65660;53.288;14.666;2023-04-28T10:31:11;4.05;;;3.65;;
76733;SDS011;65660;53.288;14.666;2023-04-28T10:41:48;5.65;;;5.20;;
76733;SDS011;65660;53.288;14.666;2023-04-28T10:51:59;4.35;;;3.95;;
76733;SDS011;65660;53.288;14.666;2023-04-28T10:57:16;3.55;;;3.25;;
76733;SDS011;65660;53.288;14.666;2023-04-28T11:02:36;5.70;;;5.35;;
76733;SDS011;65660;53.288;14.666;2023-04-28T11:07:37;54.85;;;21.08;;
76733;SDS011;65660;53.288;14.666;2023-04-28T11:13:03;24.50;;;11.40;;
76733;SDS011;65660;53.288;14.666;2023-04-28T11:18:17;8.52;;;5.07;;
76733;SDS011;65660;53.288;14.666;2023-04-28T11:23:21;4.47;;;3.50;;
76733;SDS011;65660;53.288;14.666;2023-04-28T11:28:22;4.75;;;4.25;;
76733;SDS011;65660;53.288;14.666;2023-04-28T11:33:23;4.55;;;4.10;;
76733;SDS011;65660;53.288;14.666;2023-04-28T11:38:24;4.10;;;3.67;;
76733;SDS011;65660;53.288;14.666;2023-04-28T11:43:31;6.10;;;4.35;;
76733;SDS011;65660;53.288;14.666;2023-04-28T11:48:32;4.68;;;4.28;;
76733;SDS011;65660;53.288;14.666;2023-04-28T11:53:39;5.85;;;4.90;;
76733;SDS011;65660;53.288;14.666;2023-04-28T11:58:43;5.43;;;4.78;;
76733;SDS011;65660;53.288;14.666;2023-04-28T12:03:44;6.63;;;6.00;;
76733;SDS011;65660;53.288;14.666;2023-04-28T12:08:46;4.85;;;4.20;;
76733;SDS011;65660;53.288;14.666;2023-04-28T12:14:03;5.63;;;4.45;;
76733;SDS011;65660;53.288;14.666;2023-04-28T12:19:05;5.43;;;4.93;;
76733;SDS011;65660;53.288;14.666;2023-04-28T12:24:12;4.00;;;3.70;;
76733;SDS011;65660;53.288;14.666;2023-04-28T12:29:50;6.32;;;4.63;;
76733;SDS011;65660;53.288;14.666;2023-04-28T12:34:44;5.47;;;4.97;;
76733;SDS011;65660;53.288;14.666;2023-04-28T12:39:45;4.13;;;3.67;;
76733;SDS011;65660;53.288;14.666;2023-04-28T12:44:46;5.15;;;4.68;;
76733;SDS011;65660;53.288;14.666;2023-04-28T12:49:47;5.43;;;4.93;;
76733;SDS011;65660;53.288;14.666;2023-04-28T12:54:48;5.38;;;3.65;;
76733;SDS011;65660;53.288;14.666;2023-04-28T12:59:48;6.18;;;4.80;;
76733;SDS011;65660;53.288;14.666;2023-04-28T13:04:49;7.38;;;6.57;;
76733;SDS011;65660;53.288;14.666;2023-04-28T13:09:51;7.00;;;4.70;;
76733;SDS011;65660;53.288;14.666;2023-04-28T13:14:52;7.72;;;7.13;;
76733;SDS011;65660;53.288;14.666;2023-04-28T13:19:52;5.95;;;4.40;;
76733;SDS011;65660;53.288;14.666;2023-04-28T13:24:53;7.55;;;4.57;;
76733;SDS011;65660;53.288;14.666;2023-04-28T13:29:54;4.78;;;4.30;;
76733;SDS011;65660;53.288;14.666;2023-04-28T13:34:55;5.00;;;4.50;;
76733;SDS011;65660;53.288;14.666;2023-04-28T13:39:55;7.00;;;5.13;;
76733;SDS011;65660;53.288;14.666;2023-04-28T13:44:56;7.65;;;5.00;;
76733;SDS011;65660;53.288;14.666;2023-04-28T13:49:57;8.60;;;5.13;;
76733;SDS011;65660;53.288;14.666;2023-04-28T13:54:58;5.88;;;4.47;;
76733;SDS011;65660;53.288;14.666;2023-04-28T13:59:59;6.13;;;4.80;;
76733;SDS011;65660;53.288;14.666;2023-04-28T14:04:59;5.45;;;4.88;;
76733;SDS011;65660;53.288;14.666;2023-04-28T14:10:00;5.95;;;5.32;;
76733;SDS011;65660;53.288;14.666;2023-04-28T14:15:01;8.63;;;7.80;;
76733;SDS011;65660;53.288;14.666;2023-04-28T14:20:02;8.27;;;6.55;;
76733;SDS011;65660;53.288;14.666;2023-04-28T14:25:03;8.25;;;7.10;;
76733;SDS011;65660;53.288;14.666;2023-04-28T14:30:04;8.25;;;7.45;;
76733;SDS011;65660;53.288;14.666;2023-04-28T14:35:06;6.95;;;6.15;;
76733;SDS011;65660;53.288;14.666;2023-04-28T14:40:07;9.98;;;6.65;;
76733;SDS011;65660;53.288;14.666;2023-04-28T14:45:08;7.75;;;6.15;;
76733;SDS011;65660;53.288;14.666;2023-04-28T14:50:10;7.38;;;6.65;;
76733;SDS011;65660;53.288;14.666;2023-04-28T14:55:10;7.75;;;6.40;;
76733;SDS011;65660;53.288;14.666;2023-04-28T15:00:11;7.88;;;6.28;;
76733;SDS011;65660;53.288;14.666;2023-04-28T15:05:12;8.90;;;6.60;;
76733;SDS011;65660;53.288;14.666;2023-04-28T15:10:12;7.90;;;6.57;;
76733;SDS011;65660;53.288;14.666;2023-04-28T15:15:13;8.68;;;7.55;;
76733;SDS011;65660;53.288;14.666;2023-04-28T15:20:14;10.23;;;7.18;;
76733;SDS011;65660;53.288;14.666;2023-04-28T15:25:15;9.77;;;7.40;;
76733;SDS011;65660;53.288;14.666;2023-04-28T15:30:17;9.52;;;7.53;;
76733;SDS011;65660;53.288;14.666;2023-04-28T15:35:18;10.38;;;7.65;;
76733;SDS011;65660;53.288;14.666;2023-04-28T15:40:19;12.77;;;7.70;;
76733;SDS011;65660;53.288;14.666;2023-04-28T15:45:20;9.07;;;7.82;;
76733;SDS011;65660;53.288;14.666;2023-04-28T15:50:22;10.65;;;8.10;;
76733;SDS011;65660;53.288;14.666;2023-04-28T15:55:23;13.00;;;8.15;;
76733;SDS011;65660;53.288;14.666;2023-04-28T16:00:24;10.95;;;9.50;;
76733;SDS011;65660;53.288;14.666;2023-04-28T16:05:25;10.13;;;7.88;;
76733;SDS011;65660;53.288;14.666;2023-04-28T16:10:26;8.68;;;7.88;;
76733;SDS011;65660;53.288;14.666;2023-04-28T16:15:27;9.38;;;8.38;;
76733;SDS011;65660;53.288;14.666;2023-04-28T16:20:28;8.45;;;7.65;;
76733;SDS011;65660;53.288;14.666;2023-04-28T16:25:29;8.60;;;7.63;;
76733;SDS011;65660;53.288;14.666;2023-04-28T16:30:30;9.60;;;8.20;;
76733;SDS011;65660;53.288;14.666;2023-04-28T16:35:30;8.43;;;7.53;;
76733;SDS011;65660;53.288;14.666;2023-04-28T16:40:31;9.75;;;8.75;;
76733;SDS011;65660;53.288;14.666;2023-04-28T16:45:32;10.65;;;8.05;;
76733;SDS011;65660;53.288;14.666;2023-04-28T16:50:33;12.40;;;9.48;;
76733;SDS011;65660;53.288;14.666;2023-04-28T16:55:34;13.73;;;10.60;;
76733;SDS011;65660;53.288;14.666;2023-04-28T17:00:35;12.25;;;9.52;;
76733;SDS011;65660;53.288;14.666;2023-04-28T17:05:36;11.48;;;9.07;;
76733;SDS011;65660;53.288;14.666;2023-04-28T17:10:37;11.65;;;9.00;;
76733;SDS011;65660;53.288;14.666;2023-04-28T17:15:38;11.65;;;8.95;;
76733;SDS011;65660;53.288;14.666;2023-04-28T17:20:39;12.18;;;10.00;;
76733;SDS011;65660;53.288;14.666;2023-04-28T17:25:39;10.98;;;8.90;;
76733;SDS011;65660;53.288;14.666;2023-04-28T17:30:41;10.60;;;8.95;;
76733;SDS011;65660;53.288;14.666;2023-04-28T17:35:42;13.07;;;9.75;;
76733;SDS011;65660;53.288;14.666;2023-04-28T17:40:43;13.63;;;8.93;;
76733;SDS011;65660;53.288;14.666;2023-04-28T17:45:44;11.73;;;8.95;;
76733;SDS011;65660;53.288;14.666;2023-04-28T17:50:45;12.07;;;8.20;;
76733;SDS011;65660;53.288;14.666;2023-04-28T17:55:46;9.20;;;7.63;;
76733;SDS011;65660;53.288;14.666;2023-04-28T18:00:47;10.98;;;9.23;;
76733;SDS011;65660;53.288;14.666;2023-04-28T18:05:48;12.57;;;9.20;;
76733;SDS011;65660;53.288;14.666;2023-04-28T18:10:50;14.25;;;10.10;;
76733;SDS011;65660;53.288;14.666;2023-04-28T18:15:51;14.02;;;9.88;;
76733;SDS011;65660;53.288;14.666;2023-04-28T18:20:58;11.85;;;10.48;;
76733;SDS011;65660;53.288;14.666;2023-04-28T18:25:59;12.05;;;9.80;;
76733;SDS011;65660;53.288;14.666;2023-04-28T18:31:02;11.23;;;9.73;;
76733;SDS011;65660;53.288;14.666;2023-04-28T18:36:04;14.82;;;11.00;;
76733;SDS011;65660;53.288;14.666;2023-04-28T18:41:12;16.98;;;12.13;;
76733;SDS011;65660;53.288;14.666;2023-04-28T18:46:15;15.82;;;11.52;;
76733;SDS011;65660;53.288;14.666;2023-04-28T18:51:16;14.70;;;10.80;;
76733;SDS011;65660;53.288;14.666;2023-04-28T18:56:17;15.40;;;11.23;;
76733;SDS011;65660;53.288;14.666;2023-04-28T19:01:20;16.55;;;11.77;;
76733;SDS011;65660;53.288;14.666;2023-04-28T19:06:21;16.70;;;12.15;;
76733;SDS011;65660;53.288;14.666;2023-04-28T19:11:22;14.38;;;11.43;;
76733;SDS011;65660;53.288;14.666;2023-04-28T19:16:23;17.05;;;11.85;;
76733;SDS011;65660;53.288;14.666;2023-04-28T19:21:26;18.83;;;13.38;;
76733;SDS011;65660;53.288;14.666;2023-04-28T19:26:27;14.55;;;12.35;;
76733;SDS011;65660;53.288;14.666;2023-04-28T19:31:28;16.17;;;12.52;;
76733;SDS011;65660;53.288;14.666;2023-04-28T19:36:29;18.00;;;12.70;;
76733;SDS011;65660;53.288;14.666;2023-04-28T19:41:30;15.88;;;12.20;;
76733;SDS011;65660;53.288;14.666;2023-04-28T19:46:31;16.20;;;11.75;;
76733;SDS011;65660;53.288;14.666;2023-04-28T19:51:32;15.98;;;11.40;;
76733;SDS011;65660;53.288;14.666;2023-04-28T19:56:33;17.00;;;12.35;;
76733;SDS011;65660;53.288;14.666;2023-04-28T20:01:34;16.30;;;12.18;;
76733;SDS011;65660;53.288;14.666;2023-04-28T20:06:35;17.95;;;11.70;;
76733;SDS011;65660;53.288;14.666;2023-04-28T20:11:36;14.82;;;11.65;;
76733;SDS011;65660;53.288;14.666;2023-04-28T20:16:38;16.20;;;12.65;;
76733;SDS011;65660;53.288;14.666;2023-04-28T20:21:38;18.07;;;12.73;;
76733;SDS011;65660;53.288;14.666;2023-04-28T20:26:39;22.58;;;13.65;;
76733;SDS011;65660;53.288;14.666;2023-04-28T20:31:40;16.85;;;13.00;;
76733;SDS011;65660;53.288;14.666;2023-04-28T20:36:41;21.83;;;14.63;;
76733;SDS011;65660;53.288;14.666;2023-04-28T20:41:42;23.90;;;14.77;;
76733;SDS011;65660;53.288;14.666;2023-04-28T20:46:43;19.43;;;14.17;;
76733;SDS011;65660;53.288;14.666;2023-04-28T20:51:44;21.33;;;14.33;;
76733;SDS011;65660;53.288;14.666;2023-04-28T20:56:45;21.40;;;14.23;;
76733;SDS011;65660;53.288;14.666;2023-04-28T21:01:46;23.03;;;15.43;;
76733;SDS011;65660;53.288;14.666;2023-04-28T21:06:47;21.37;;;15.37;;
76733;SDS011;65660;53.288;14.666;2023-04-28T21:11:48;24.27;;;16.23;;
76733;SDS011;65660;53.288;14.666;2023-04-28T21:16:49;25.87;;;16.10;;
76733;SDS011;65660;53.288;14.666;2023-04-28T21:21:50;24.13;;;16.73;;
76733;SDS011;65660;53.288;14.666;2023-04-28T21:26:50;23.00;;;17.33;;
76733;SDS011;65660;53.288;14.666;2023-04-28T21:31:51;24.17;;;17.77;;
76733;SDS011;65660;53.288;14.666;2023-04-28T21:36:52;23.17;;;17.17;;
76733;SDS011;65660;53.288;14.666;2023-04-28T21:41:52;23.27;;;16.13;;
76733;SDS011;65660;53.288;14.666;2023-04-28T21:46:53;22.07;;;16.10;;
76733;SDS011;65660;53.288;14.666;2023-04-28T21:51:54;22.07;;;16.53;;
76733;SDS011;65660;53.288;14.666;2023-04-28T21:56:55;26.43;;;18.27;;
76733;SDS011;65660;53.288;14.666;2023-04-28T22:01:56;23.60;;;16.70;;
76733;SDS011;65660;53.288;14.666;2023-04-28T22:06:57;24.90;;;17.60;;
76733;SDS011;65660;53.288;14.666;2023-04-28T22:11:58;24.87;;;17.10;;
76733;SDS011;65660;53.288;14.666;2023-04-28T22:16:59;25.13;;;18.53;;
76733;SDS011;65660;53.288;14.666;2023-04-28T22:22:00;26.50;;;18.00;;
76733;SDS011;65660;53.288;14.666;2023-04-28T22:27:01;26.73;;;19.03;;
76733;SDS011;65660;53.288;14.666;2023-04-28T22:32:02;27.43;;;19.37;;
76733;SDS011;65660;53.288;14.666;2023-04-28T22:37:03;26.67;;;18.23;;
76733;SDS011;65660;53.288;14.666;2023-04-28T22:42:04;33.23;;;22.40;;
76733;SDS011;65660;53.288;14.666;2023-04-28T22:47:05;28.90;;;19.63;;
76733;SDS011;65660;53.288;14.666;2023-04-28T22:52:06;31.60;;;19.93;;
76733;SDS011;65660;53.288;14.666;2023-04-28T22:57:07;28.33;;;18.63;;
76733;SDS011;65660;53.288;14.666;2023-04-28T23:02:07;24.40;;;18.43;;
76733;SDS011;65660;53.288;14.666;2023-04-28T23:07:08;25.47;;;17.57;;
76733;SDS011;65660;53.288;14.666;2023-04-28T23:12:09;24.50;;;17.50;;
76733;SDS011;65660;53.288;14.666;2023-04-28T23:17:10;23.77;;;16.07;;
76733;SDS011;65660;53.288;14.666;2023-04-28T23:22:11;21.03;;;16.17;;
76733;SDS011;65660;53.288;14.666;2023-04-28T23:27:12;25.53;;;16.80;;
76733;SDS011;65660;53.288;14.666;2023-04-28T23:32:13;22.43;;;15.87;;
76733;SDS011;65660;53.288;14.666;2023-04-28T23:37:14;19.30;;;15.30;;
76733;SDS011;65660;53.288;14.666;2023-04-28T23:42:16;19.53;;;14.63;;
76733;SDS011;65660;53.288;14.666;2023-04-28T23:47:17;19.37;;;14.27;;
76733;SDS011;65660;53.288;14.666;2023-04-28T23:52:18;20.13;;;14.77;;
76733;SDS011;65660;53.288;14.666;2023-04-28T23:57:18;19.53;;;14.07;;
